Terminal Aerodrome Forecast
Issued by NWS

Home | Current Version | Previous Version | Text Only | Print | Product List | Glossary On
Versions: 1 2 3 4 5 6 7 8 9 10 11 12 13 14 15 16 17
000
FTUS45 KABQ 240300 AAA
TAFSAF
TAF AMD
KSAF 240309Z 2403/2424 VRB05KT P6SM FEW070 SCT150
     FM240700 36007KT P6SM SKC
     FM241900 04007KT P6SM FEW080
     FM242200 14009KT P6SM VCTS SCT080CB SCT150=

USA.gov is the U.S. government's official web portal to all federal, state and local government web resources and services.